< < Back
Terminal Aerodrome Forecast


Current Version              Previous Versions:   1  2  3  4  5  6  7  8  9  

Terminal Aerodrome Forecast

481
FTUS44 KMRX 160524
TAFTYS
TAF
KTYS 160524Z 1606/1706 03009KT P6SM SCT045
     FM161700 06008KT P6SM SKC
     FM170000 VRB04KT P6SM SKC=

Latest METAR

896
SAUS80 KWBC 170100
MTRTYS
METAR KTYS 170053Z 00000KT 10SM FEW250 12/M02 A3021 RMK AO2 SLP232
T01221022


USA.gov is the U.S. government's official web portal to all federal, state and local government web resources and services.